sensor_id;sensor_type;location;lat;lon;timestamp;P1;durP1;ratioP1;P2;durP2;ratioP2
10463;SDS011;5279;42.048;24.638;2023-03-31T00:02:03;2.63;;;2.40;;
10463;SDS011;5279;42.048;24.638;2023-03-31T00:04:31;3.57;;;2.40;;
10463;SDS011;5279;42.048;24.638;2023-03-31T00:06:58;3.20;;;2.40;;
10463;SDS011;5279;42.048;24.638;2023-03-31T00:09:25;4.47;;;2.70;;
10463;SDS011;5279;42.048;24.638;2023-03-31T00:11:54;2.53;;;2.23;;
10463;SDS011;5279;42.048;24.638;2023-03-31T00:14:21;2.90;;;2.23;;
10463;SDS011;5279;42.048;24.638;2023-03-31T00:16:49;2.67;;;2.47;;
10463;SDS011;5279;42.048;24.638;2023-03-31T00:19:16;3.47;;;2.30;;
10463;SDS011;5279;42.048;24.638;2023-03-31T00:21:46;3.23;;;2.50;;
10463;SDS011;5279;42.048;24.638;2023-03-31T00:24:17;4.17;;;2.70;;
10463;SDS011;5279;42.048;24.638;2023-03-31T00:26:44;2.10;;;1.90;;
10463;SDS011;5279;42.048;24.638;2023-03-31T00:29:11;3.63;;;2.63;;
10463;SDS011;5279;42.048;24.638;2023-03-31T00:31:39;2.50;;;2.30;;
10463;SDS011;5279;42.048;24.638;2023-03-31T00:34:07;2.13;;;1.90;;
10463;SDS011;5279;42.048;24.638;2023-03-31T00:36:36;2.30;;;2.10;;
10463;SDS011;5279;42.048;24.638;2023-03-31T00:39:12;2.50;;;2.07;;
10463;SDS011;5279;42.048;24.638;2023-03-31T00:41:42;2.20;;;1.87;;
10463;SDS011;5279;42.048;24.638;2023-03-31T00:44:10;2.37;;;2.00;;
10463;SDS011;5279;42.048;24.638;2023-03-31T00:46:43;2.10;;;1.80;;
10463;SDS011;5279;42.048;24.638;2023-03-31T00:49:19;3.53;;;2.37;;
10463;SDS011;5279;42.048;24.638;2023-03-31T00:51:51;1.93;;;1.73;;
10463;SDS011;5279;42.048;24.638;2023-03-31T00:54:21;2.80;;;1.90;;
10463;SDS011;5279;42.048;24.638;2023-03-31T00:56:52;1.93;;;1.80;;
10463;SDS011;5279;42.048;24.638;2023-03-31T00:59:23;2.20;;;2.00;;
10463;SDS011;5279;42.048;24.638;2023-03-31T01:01:53;3.70;;;1.93;;
10463;SDS011;5279;42.048;24.638;2023-03-31T01:04:28;3.23;;;1.90;;
10463;SDS011;5279;42.048;24.638;2023-03-31T01:07:00;2.13;;;1.93;;
10463;SDS011;5279;42.048;24.638;2023-03-31T01:09:33;2.73;;;1.73;;
10463;SDS011;5279;42.048;24.638;2023-03-31T01:12:04;2.37;;;1.97;;
10463;SDS011;5279;42.048;24.638;2023-03-31T01:14:33;2.63;;;1.70;;
10463;SDS011;5279;42.048;24.638;2023-03-31T01:17:01;3.03;;;2.00;;
10463;SDS011;5279;42.048;24.638;2023-03-31T01:19:34;2.73;;;1.90;;
10463;SDS011;5279;42.048;24.638;2023-03-31T01:28:28;4.03;;;2.30;;
10463;SDS011;5279;42.048;24.638;2023-03-31T01:31:09;2.17;;;1.97;;
10463;SDS011;5279;42.048;24.638;2023-03-31T01:40:25;2.37;;;1.83;;
10463;SDS011;5279;42.048;24.638;2023-03-31T01:43:02;2.63;;;1.90;;
10463;SDS011;5279;42.048;24.638;2023-03-31T01:45:38;1.87;;;1.73;;
10463;SDS011;5279;42.048;24.638;2023-03-31T01:48:13;2.47;;;1.97;;
10463;SDS011;5279;42.048;24.638;2023-03-31T01:50:44;3.63;;;2.00;;
10463;SDS011;5279;42.048;24.638;2023-03-31T01:53:15;1.97;;;1.77;;
10463;SDS011;5279;42.048;24.638;2023-03-31T01:55:49;3.53;;;2.17;;
10463;SDS011;5279;42.048;24.638;2023-03-31T01:58:24;2.20;;;2.00;;
10463;SDS011;5279;42.048;24.638;2023-03-31T02:00:57;2.03;;;1.90;;
10463;SDS011;5279;42.048;24.638;2023-03-31T02:03:28;1.97;;;1.83;;
10463;SDS011;5279;42.048;24.638;2023-03-31T02:06:02;3.60;;;1.60;;
10463;SDS011;5279;42.048;24.638;2023-03-31T02:08:36;2.33;;;2.13;;
10463;SDS011;5279;42.048;24.638;2023-03-31T02:11:07;2.73;;;2.27;;
10463;SDS011;5279;42.048;24.638;2023-03-31T02:13:34;2.77;;;2.10;;
10463;SDS011;5279;42.048;24.638;2023-03-31T02:16:05;2.00;;;1.80;;
10463;SDS011;5279;42.048;24.638;2023-03-31T02:18:38;3.57;;;2.37;;
10463;SDS011;5279;42.048;24.638;2023-03-31T02:21:06;3.10;;;2.10;;
10463;SDS011;5279;42.048;24.638;2023-03-31T02:23:34;2.50;;;2.30;;
10463;SDS011;5279;42.048;24.638;2023-03-31T02:26:04;3.03;;;2.50;;
10463;SDS011;5279;42.048;24.638;2023-03-31T02:28:36;3.70;;;2.40;;
10463;SDS011;5279;42.048;24.638;2023-03-31T02:31:05;2.97;;;2.00;;
10463;SDS011;5279;42.048;24.638;2023-03-31T02:33:41;2.10;;;1.97;;
10463;SDS011;5279;42.048;24.638;2023-03-31T02:36:13;2.33;;;2.10;;
10463;SDS011;5279;42.048;24.638;2023-03-31T02:38:42;2.30;;;2.10;;
10463;SDS011;5279;42.048;24.638;2023-03-31T02:41:12;1.90;;;1.60;;
10463;SDS011;5279;42.048;24.638;2023-03-31T02:43:39;2.13;;;1.70;;
10463;SDS011;5279;42.048;24.638;2023-03-31T02:46:06;2.57;;;2.10;;
10463;SDS011;5279;42.048;24.638;2023-03-31T02:48:34;1.73;;;1.63;;
10463;SDS011;5279;42.048;24.638;2023-03-31T02:51:11;2.20;;;1.93;;
10463;SDS011;5279;42.048;24.638;2023-03-31T02:54:04;2.73;;;1.90;;
10463;SDS011;5279;42.048;24.638;2023-03-31T02:56:49;2.53;;;1.97;;
10463;SDS011;5279;42.048;24.638;2023-03-31T02:59:38;3.80;;;1.90;;
10463;SDS011;5279;42.048;24.638;2023-03-31T03:02:13;3.43;;;1.80;;
10463;SDS011;5279;42.048;24.638;2023-03-31T03:07:45;2.30;;;1.80;;
10463;SDS011;5279;42.048;24.638;2023-03-31T03:10:19;1.77;;;1.67;;
10463;SDS011;5279;42.048;24.638;2023-03-31T03:12:56;2.40;;;2.20;;
10463;SDS011;5279;42.048;24.638;2023-03-31T03:15:30;2.30;;;2.00;;
10463;SDS011;5279;42.048;24.638;2023-03-31T03:18:00;2.17;;;1.77;;
10463;SDS011;5279;42.048;24.638;2023-03-31T03:20:28;2.07;;;1.87;;
10463;SDS011;5279;42.048;24.638;2023-03-31T03:22:58;1.83;;;1.70;;
10463;SDS011;5279;42.048;24.638;2023-03-31T03:25:24;4.23;;;1.80;;
10463;SDS011;5279;42.048;24.638;2023-03-31T03:27:51;1.90;;;1.80;;
10463;SDS011;5279;42.048;24.638;2023-03-31T03:30:20;1.90;;;1.80;;
10463;SDS011;5279;42.048;24.638;2023-03-31T03:32:48;2.10;;;1.80;;
10463;SDS011;5279;42.048;24.638;2023-03-31T03:35:14;2.10;;;1.90;;
10463;SDS011;5279;42.048;24.638;2023-03-31T03:37:41;3.10;;;1.90;;
10463;SDS011;5279;42.048;24.638;2023-03-31T03:40:10;3.63;;;2.00;;
10463;SDS011;5279;42.048;24.638;2023-03-31T03:42:37;2.07;;;1.83;;
10463;SDS011;5279;42.048;24.638;2023-03-31T03:45:04;3.73;;;2.30;;
10463;SDS011;5279;42.048;24.638;2023-03-31T03:47:33;2.37;;;1.70;;
10463;SDS011;5279;42.048;24.638;2023-03-31T03:50:00;1.60;;;1.50;;
10463;SDS011;5279;42.048;24.638;2023-03-31T03:52:28;1.90;;;1.80;;
10463;SDS011;5279;42.048;24.638;2023-03-31T03:54:55;2.20;;;2.00;;
10463;SDS011;5279;42.048;24.638;2023-03-31T03:57:21;3.20;;;2.10;;
10463;SDS011;5279;42.048;24.638;2023-03-31T03:59:48;1.83;;;1.73;;
10463;SDS011;5279;42.048;24.638;2023-03-31T04:02:15;5.77;;;2.10;;
10463;SDS011;5279;42.048;24.638;2023-03-31T04:04:46;1.93;;;1.73;;
10463;SDS011;5279;42.048;24.638;2023-03-31T04:07:13;2.43;;;2.00;;
10463;SDS011;5279;42.048;24.638;2023-03-31T04:09:39;3.00;;;1.60;;
10463;SDS011;5279;42.048;24.638;2023-03-31T04:12:06;3.07;;;1.87;;
10463;SDS011;5279;42.048;24.638;2023-03-31T04:14:33;2.27;;;1.97;;
10463;SDS011;5279;42.048;24.638;2023-03-31T04:17:00;2.70;;;1.90;;
10463;SDS011;5279;42.048;24.638;2023-03-31T04:19:27;3.87;;;2.00;;
10463;SDS011;5279;42.048;24.638;2023-03-31T04:21:55;2.97;;;2.27;;
10463;SDS011;5279;42.048;24.638;2023-03-31T04:24:27;2.50;;;1.93;;
10463;SDS011;5279;42.048;24.638;2023-03-31T04:26:56;2.53;;;2.03;;
10463;SDS011;5279;42.048;24.638;2023-03-31T04:29:24;1.80;;;1.67;;
10463;SDS011;5279;42.048;24.638;2023-03-31T04:31:52;2.03;;;1.83;;
10463;SDS011;5279;42.048;24.638;2023-03-31T04:34:23;2.30;;;2.10;;
10463;SDS011;5279;42.048;24.638;2023-03-31T04:37:00;2.03;;;1.83;;
10463;SDS011;5279;42.048;24.638;2023-03-31T04:39:28;3.47;;;2.10;;
10463;SDS011;5279;42.048;24.638;2023-03-31T04:41:56;1.80;;;1.53;;
10463;SDS011;5279;42.048;24.638;2023-03-31T04:44:23;2.23;;;1.77;;
10463;SDS011;5279;42.048;24.638;2023-03-31T04:46:50;1.90;;;1.80;;
10463;SDS011;5279;42.048;24.638;2023-03-31T04:49:17;2.60;;;1.83;;
10463;SDS011;5279;42.048;24.638;2023-03-31T04:51:44;3.50;;;2.97;;
10463;SDS011;5279;42.048;24.638;2023-03-31T04:54:12;2.93;;;2.30;;
10463;SDS011;5279;42.048;24.638;2023-03-31T04:56:39;2.67;;;2.47;;
10463;SDS011;5279;42.048;24.638;2023-03-31T04:59:06;2.30;;;2.10;;
10463;SDS011;5279;42.048;24.638;2023-03-31T05:01:33;2.00;;;1.87;;
10463;SDS011;5279;42.048;24.638;2023-03-31T05:04:00;2.03;;;1.80;;
10463;SDS011;5279;42.048;24.638;2023-03-31T05:06:27;2.57;;;1.90;;
10463;SDS011;5279;42.048;24.638;2023-03-31T05:08:54;2.03;;;1.90;;
10463;SDS011;5279;42.048;24.638;2023-03-31T05:11:22;3.80;;;1.90;;
10463;SDS011;5279;42.048;24.638;2023-03-31T05:13:50;3.07;;;1.77;;
10463;SDS011;5279;42.048;24.638;2023-03-31T05:16:16;2.73;;;2.07;;
10463;SDS011;5279;42.048;24.638;2023-03-31T05:18:43;2.70;;;2.10;;
10463;SDS011;5279;42.048;24.638;2023-03-31T05:21:11;2.10;;;1.90;;
10463;SDS011;5279;42.048;24.638;2023-03-31T05:23:39;2.20;;;2.00;;
10463;SDS011;5279;42.048;24.638;2023-03-31T05:26:06;1.70;;;1.60;;
10463;SDS011;5279;42.048;24.638;2023-03-31T05:28:35;2.07;;;1.87;;
10463;SDS011;5279;42.048;24.638;2023-03-31T05:31:02;3.80;;;2.13;;
10463;SDS011;5279;42.048;24.638;2023-03-31T05:33:30;3.70;;;2.10;;
10463;SDS011;5279;42.048;24.638;2023-03-31T05:35:58;2.00;;;1.80;;
10463;SDS011;5279;42.048;24.638;2023-03-31T05:38:26;2.57;;;2.00;;
10463;SDS011;5279;42.048;24.638;2023-03-31T05:40:55;2.67;;;1.80;;
10463;SDS011;5279;42.048;24.638;2023-03-31T05:43:22;2.30;;;2.10;;
10463;SDS011;5279;42.048;24.638;2023-03-31T05:45:50;1.87;;;1.50;;
10463;SDS011;5279;42.048;24.638;2023-03-31T05:48:17;2.63;;;1.70;;
10463;SDS011;5279;42.048;24.638;2023-03-31T05:50:45;3.43;;;1.50;;
10463;SDS011;5279;42.048;24.638;2023-03-31T05:53:12;2.13;;;1.90;;
10463;SDS011;5279;42.048;24.638;2023-03-31T05:55:39;1.87;;;1.67;;
10463;SDS011;5279;42.048;24.638;2023-03-31T05:58:06;2.47;;;1.70;;
10463;SDS011;5279;42.048;24.638;2023-03-31T06:00:33;2.27;;;1.40;;
10463;SDS011;5279;42.048;24.638;2023-03-31T06:03:03;2.20;;;1.63;;
10463;SDS011;5279;42.048;24.638;2023-03-31T06:05:32;1.50;;;1.40;;
10463;SDS011;5279;42.048;24.638;2023-03-31T06:07:59;1.40;;;1.30;;
10463;SDS011;5279;42.048;24.638;2023-03-31T06:10:26;1.60;;;1.50;;
10463;SDS011;5279;42.048;24.638;2023-03-31T06:12:53;1.77;;;1.30;;
10463;SDS011;5279;42.048;24.638;2023-03-31T06:15:20;1.47;;;1.30;;
10463;SDS011;5279;42.048;24.638;2023-03-31T06:17:47;1.80;;;1.57;;
10463;SDS011;5279;42.048;24.638;2023-03-31T06:20:15;1.73;;;1.30;;
10463;SDS011;5279;42.048;24.638;2023-03-31T06:22:42;1.00;;;1.00;;
10463;SDS011;5279;42.048;24.638;2023-03-31T06:25:09;2.00;;;1.73;;
10463;SDS011;5279;42.048;24.638;2023-03-31T06:27:36;1.33;;;1.20;;
10463;SDS011;5279;42.048;24.638;2023-03-31T06:30:03;2.10;;;1.50;;
10463;SDS011;5279;42.048;24.638;2023-03-31T06:32:30;1.57;;;1.20;;
10463;SDS011;5279;42.048;24.638;2023-03-31T06:34:57;0.97;;;0.90;;
10463;SDS011;5279;42.048;24.638;2023-03-31T06:37:25;1.33;;;1.23;;
10463;SDS011;5279;42.048;24.638;2023-03-31T06:39:52;2.90;;;1.60;;
10463;SDS011;5279;42.048;24.638;2023-03-31T06:42:19;1.90;;;1.50;;
10463;SDS011;5279;42.048;24.638;2023-03-31T06:44:46;2.80;;;1.30;;
10463;SDS011;5279;42.048;24.638;2023-03-31T06:47:13;1.73;;;1.50;;
10463;SDS011;5279;42.048;24.638;2023-03-31T06:49:39;1.90;;;1.23;;
10463;SDS011;5279;42.048;24.638;2023-03-31T06:52:06;1.63;;;1.47;;
10463;SDS011;5279;42.048;24.638;2023-03-31T06:54:34;1.40;;;1.30;;
10463;SDS011;5279;42.048;24.638;2023-03-31T06:57:01;1.50;;;1.40;;
10463;SDS011;5279;42.048;24.638;2023-03-31T06:59:28;1.90;;;1.40;;
10463;SDS011;5279;42.048;24.638;2023-03-31T07:01:55;1.43;;;1.33;;
10463;SDS011;5279;42.048;24.638;2023-03-31T07:04:22;1.87;;;1.40;;
10463;SDS011;5279;42.048;24.638;2023-03-31T07:06:49;1.73;;;1.50;;
10463;SDS011;5279;42.048;24.638;2023-03-31T07:09:16;1.50;;;1.10;;
10463;SDS011;5279;42.048;24.638;2023-03-31T07:11:46;2.70;;;1.87;;
10463;SDS011;5279;42.048;24.638;2023-03-31T07:14:13;3.90;;;2.83;;
10463;SDS011;5279;42.048;24.638;2023-03-31T07:16:40;12.17;;;6.13;;
10463;SDS011;5279;42.048;24.638;2023-03-31T07:19:07;7.47;;;4.73;;
10463;SDS011;5279;42.048;24.638;2023-03-31T07:21:35;4.90;;;3.37;;
10463;SDS011;5279;42.048;24.638;2023-03-31T07:24:02;5.90;;;4.40;;
10463;SDS011;5279;42.048;24.638;2023-03-31T07:26:29;5.23;;;4.10;;
10463;SDS011;5279;42.048;24.638;2023-03-31T07:28:57;8.40;;;6.37;;
10463;SDS011;5279;42.048;24.638;2023-03-31T07:31:24;6.63;;;4.30;;
10463;SDS011;5279;42.048;24.638;2023-03-31T07:33:51;3.90;;;3.23;;
10463;SDS011;5279;42.048;24.638;2023-03-31T07:36:18;5.60;;;4.03;;
10463;SDS011;5279;42.048;24.638;2023-03-31T07:38:45;6.50;;;3.30;;
10463;SDS011;5279;42.048;24.638;2023-03-31T07:41:14;5.93;;;4.17;;
10463;SDS011;5279;42.048;24.638;2023-03-31T07:43:42;6.97;;;4.37;;
10463;SDS011;5279;42.048;24.638;2023-03-31T07:46:15;6.23;;;4.53;;
10463;SDS011;5279;42.048;24.638;2023-03-31T07:48:43;4.70;;;3.67;;
10463;SDS011;5279;42.048;24.638;2023-03-31T07:51:12;5.37;;;4.37;;
10463;SDS011;5279;42.048;24.638;2023-03-31T07:53:39;5.33;;;4.03;;
10463;SDS011;5279;42.048;24.638;2023-03-31T07:56:06;12.03;;;6.83;;
10463;SDS011;5279;42.048;24.638;2023-03-31T07:58:33;9.57;;;6.27;;
10463;SDS011;5279;42.048;24.638;2023-03-31T08:01:00;9.10;;;4.60;;
10463;SDS011;5279;42.048;24.638;2023-03-31T08:03:28;7.93;;;4.10;;
10463;SDS011;5279;42.048;24.638;2023-03-31T08:05:56;5.17;;;3.77;;
10463;SDS011;5279;42.048;24.638;2023-03-31T08:08:23;6.93;;;4.30;;
10463;SDS011;5279;42.048;24.638;2023-03-31T08:10:50;24.70;;;13.63;;
10463;SDS011;5279;42.048;24.638;2023-03-31T08:13:17;4.53;;;2.73;;
10463;SDS011;5279;42.048;24.638;2023-03-31T08:15:44;4.50;;;2.20;;
10463;SDS011;5279;42.048;24.638;2023-03-31T08:18:11;1.47;;;1.17;;
10463;SDS011;5279;42.048;24.638;2023-03-31T08:20:39;3.87;;;1.63;;
10463;SDS011;5279;42.048;24.638;2023-03-31T08:23:06;1.73;;;1.40;;
10463;SDS011;5279;42.048;24.638;2023-03-31T08:25:35;1.90;;;1.53;;
10463;SDS011;5279;42.048;24.638;2023-03-31T08:28:02;1.63;;;1.30;;
10463;SDS011;5279;42.048;24.638;2023-03-31T08:30:31;1.13;;;1.03;;
10463;SDS011;5279;42.048;24.638;2023-03-31T08:32:57;1.03;;;0.90;;
10463;SDS011;5279;42.048;24.638;2023-03-31T08:35:26;1.60;;;1.13;;
10463;SDS011;5279;42.048;24.638;2023-03-31T08:37:54;1.10;;;0.93;;
10463;SDS011;5279;42.048;24.638;2023-03-31T08:40:22;1.60;;;1.50;;
10463;SDS011;5279;42.048;24.638;2023-03-31T08:42:52;1.43;;;0.97;;
10463;SDS011;5279;42.048;24.638;2023-03-31T08:45:22;1.73;;;1.30;;
10463;SDS011;5279;42.048;24.638;2023-03-31T08:47:52;2.60;;;1.40;;
10463;SDS011;5279;42.048;24.638;2023-03-31T08:50:23;2.97;;;1.17;;
10463;SDS011;5279;42.048;24.638;2023-03-31T08:52:55;2.10;;;1.40;;
10463;SDS011;5279;42.048;24.638;2023-03-31T08:55:29;1.43;;;1.27;;
10463;SDS011;5279;42.048;24.638;2023-03-31T08:58:05;3.07;;;1.30;;
10463;SDS011;5279;42.048;24.638;2023-03-31T09:00:37;1.57;;;1.47;;
10463;SDS011;5279;42.048;24.638;2023-03-31T09:03:10;1.10;;;1.00;;
10463;SDS011;5279;42.048;24.638;2023-03-31T09:05:45;2.53;;;1.30;;
10463;SDS011;5279;42.048;24.638;2023-03-31T09:08:23;3.83;;;1.37;;
10463;SDS011;5279;42.048;24.638;2023-03-31T09:11:24;1.27;;;1.10;;
10463;SDS011;5279;42.048;24.638;2023-03-31T09:14:09;0.90;;;0.90;;
10463;SDS011;5279;42.048;24.638;2023-03-31T09:16:53;2.07;;;1.30;;
10463;SDS011;5279;42.048;24.638;2023-03-31T09:19:30;2.10;;;1.43;;
10463;SDS011;5279;42.048;24.638;2023-03-31T09:22:02;1.33;;;1.07;;
10463;SDS011;5279;42.048;24.638;2023-03-31T09:24:33;1.33;;;0.90;;
10463;SDS011;5279;42.048;24.638;2023-03-31T09:27:06;2.13;;;0.90;;
10463;SDS011;5279;42.048;24.638;2023-03-31T09:29:38;1.20;;;1.03;;
10463;SDS011;5279;42.048;24.638;2023-03-31T09:32:12;1.30;;;1.20;;
10463;SDS011;5279;42.048;24.638;2023-03-31T09:34:41;1.40;;;0.93;;
10463;SDS011;5279;42.048;24.638;2023-03-31T09:37:10;2.80;;;0.90;;
10463;SDS011;5279;42.048;24.638;2023-03-31T09:39:39;0.60;;;0.60;;
10463;SDS011;5279;42.048;24.638;2023-03-31T09:42:08;1.73;;;0.97;;
10463;SDS011;5279;42.048;24.638;2023-03-31T09:44:37;1.33;;;1.10;;
10463;SDS011;5279;42.048;24.638;2023-03-31T09:47:08;3.40;;;1.30;;
10463;SDS011;5279;42.048;24.638;2023-03-31T09:49:40;2.43;;;1.33;;
10463;SDS011;5279;42.048;24.638;2023-03-31T09:52:11;3.93;;;1.40;;
10463;SDS011;5279;42.048;24.638;2023-03-31T09:54:48;1.73;;;1.37;;
10463;SDS011;5279;42.048;24.638;2023-03-31T09:57:22;1.40;;;1.30;;
10463;SDS011;5279;42.048;24.638;2023-03-31T09:59:51;3.10;;;1.70;;
10463;SDS011;5279;42.048;24.638;2023-03-31T10:02:35;1.90;;;1.40;;
10463;SDS011;5279;42.048;24.638;2023-03-31T10:05:05;2.23;;;1.20;;
10463;SDS011;5279;42.048;24.638;2023-03-31T10:07:43;1.87;;;1.30;;
10463;SDS011;5279;42.048;24.638;2023-03-31T10:10:15;2.87;;;1.50;;
10463;SDS011;5279;42.048;24.638;2023-03-31T10:12:52;3.40;;;1.37;;
10463;SDS011;5279;42.048;24.638;2023-03-31T10:15:20;2.57;;;1.30;;
10463;SDS011;5279;42.048;24.638;2023-03-31T10:17:50;2.37;;;1.20;;
10463;SDS011;5279;42.048;24.638;2023-03-31T10:20:18;1.53;;;1.27;;
10463;SDS011;5279;42.048;24.638;2023-03-31T10:22:53;1.50;;;1.20;;
10463;SDS011;5279;42.048;24.638;2023-03-31T10:25:22;1.33;;;1.15;;
10463;SDS011;5279;42.048;24.638;2023-03-31T10:27:53;2.00;;;1.33;;
10463;SDS011;5279;42.048;24.638;2023-03-31T10:30:22;3.47;;;1.50;;
10463;SDS011;5279;42.048;24.638;2023-03-31T10:32:51;2.53;;;1.30;;
10463;SDS011;5279;42.048;24.638;2023-03-31T10:35:21;3.40;;;1.80;;
10463;SDS011;5279;42.048;24.638;2023-03-31T10:37:53;2.63;;;1.30;;
10463;SDS011;5279;42.048;24.638;2023-03-31T10:40:24;4.00;;;1.63;;
10463;SDS011;5279;42.048;24.638;2023-03-31T10:42:59;1.50;;;1.40;;
10463;SDS011;5279;42.048;24.638;2023-03-31T10:45:29;2.30;;;1.30;;
10463;SDS011;5279;42.048;24.638;2023-03-31T10:47:57;3.33;;;1.80;;
10463;SDS011;5279;42.048;24.638;2023-03-31T10:50:26;3.37;;;2.00;;
10463;SDS011;5279;42.048;24.638;2023-03-31T10:52:59;2.70;;;1.90;;
10463;SDS011;5279;42.048;24.638;2023-03-31T10:55:31;2.73;;;1.80;;
10463;SDS011;5279;42.048;24.638;2023-03-31T10:58:04;2.10;;;1.90;;
10463;SDS011;5279;42.048;24.638;2023-03-31T11:00:46;2.60;;;2.40;;
10463;SDS011;5279;42.048;24.638;2023-03-31T11:03:36;2.97;;;2.47;;
10463;SDS011;5279;42.048;24.638;2023-03-31T11:06:21;3.67;;;2.30;;
10463;SDS011;5279;42.048;24.638;2023-03-31T11:09:01;3.33;;;2.10;;
10463;SDS011;5279;42.048;24.638;2023-03-31T11:11:50;2.28;;;2.08;;
10463;SDS011;5279;42.048;24.638;2023-03-31T11:14:28;2.58;;;2.38;;
10463;SDS011;5279;42.048;24.638;2023-03-31T11:17:08;2.90;;;2.55;;
10463;SDS011;5279;42.048;24.638;2023-03-31T11:19:49;2.42;;;2.22;;
10463;SDS011;5279;42.048;24.638;2023-03-31T11:22:24;4.15;;;2.85;;
10463;SDS011;5279;42.048;24.638;2023-03-31T11:25:02;4.20;;;3.60;;
10463;SDS011;5279;42.048;24.638;2023-03-31T11:27:42;3.10;;;2.78;;
10463;SDS011;5279;42.048;24.638;2023-03-31T11:30:32;2.50;;;2.30;;
10463;SDS011;5279;42.048;24.638;2023-03-31T11:33:14;5.43;;;3.08;;
10463;SDS011;5279;42.048;24.638;2023-03-31T11:35:59;3.63;;;2.13;;
10463;SDS011;5279;42.048;24.638;2023-03-31T11:38:36;3.20;;;2.63;;
10463;SDS011;5279;42.048;24.638;2023-03-31T11:41:10;3.03;;;2.72;;
10463;SDS011;5279;42.048;24.638;2023-03-31T11:43:42;2.85;;;2.30;;
10463;SDS011;5279;42.048;24.638;2023-03-31T11:46:14;2.50;;;2.30;;
10463;SDS011;5279;42.048;24.638;2023-03-31T11:48:45;3.88;;;2.50;;
10463;SDS011;5279;42.048;24.638;2023-03-31T11:51:17;4.53;;;2.75;;
10463;SDS011;5279;42.048;24.638;2023-03-31T11:53:47;4.45;;;2.60;;
10463;SDS011;5279;42.048;24.638;2023-03-31T11:56:16;5.25;;;2.53;;
10463;SDS011;5279;42.048;24.638;2023-03-31T11:58:47;4.03;;;2.70;;
10463;SDS011;5279;42.048;24.638;2023-03-31T12:01:20;3.30;;;2.70;;
10463;SDS011;5279;42.048;24.638;2023-03-31T12:03:55;2.85;;;2.42;;
10463;SDS011;5279;42.048;24.638;2023-03-31T12:06:27;2.85;;;2.35;;
10463;SDS011;5279;42.048;24.638;2023-03-31T12:09:09;2.75;;;2.55;;
10463;SDS011;5279;42.048;24.638;2023-03-31T12:11:42;3.03;;;2.15;;
10463;SDS011;5279;42.048;24.638;2023-03-31T12:14:22;4.18;;;2.28;;
10463;SDS011;5279;42.048;24.638;2023-03-31T12:16:56;2.40;;;2.20;;
10463;SDS011;5279;42.048;24.638;2023-03-31T12:19:29;4.18;;;2.20;;
10463;SDS011;5279;42.048;24.638;2023-03-31T12:22:03;2.35;;;2.15;;
10463;SDS011;5279;42.048;24.638;2023-03-31T12:24:36;3.55;;;1.85;;
10463;SDS011;5279;42.048;24.638;2023-03-31T12:27:04;2.60;;;2.00;;
10463;SDS011;5279;42.048;24.638;2023-03-31T12:29:39;1.42;;;1.30;;
10463;SDS011;5279;42.048;24.638;2023-03-31T12:32:11;2.63;;;2.08;;
10463;SDS011;5279;42.048;24.638;2023-03-31T12:34:43;2.07;;;1.87;;
10463;SDS011;5279;42.048;24.638;2023-03-31T12:37:21;2.30;;;2.10;;
10463;SDS011;5279;42.048;24.638;2023-03-31T12:40:15;3.35;;;2.05;;
10463;SDS011;5279;42.048;24.638;2023-03-31T12:42:53;2.88;;;2.13;;
10463;SDS011;5279;42.048;24.638;2023-03-31T12:45:35;2.78;;;1.95;;
10463;SDS011;5279;42.048;24.638;2023-03-31T12:53:51;4.18;;;1.77;;
10463;SDS011;5279;42.048;24.638;2023-03-31T12:56:27;1.98;;;1.70;;
10463;SDS011;5279;42.048;24.638;2023-03-31T12:58:53;2.50;;;1.70;;
10463;SDS011;5279;42.048;24.638;2023-03-31T13:01:50;3.33;;;1.80;;
10463;SDS011;5279;42.048;24.638;2023-03-31T13:04:44;2.67;;;2.05;;
10463;SDS011;5279;42.048;24.638;2023-03-31T13:07:32;4.97;;;1.65;;
10463;SDS011;5279;42.048;24.638;2023-03-31T13:10:24;1.98;;;1.77;;
10463;SDS011;5279;42.048;24.638;2023-03-31T13:12:55;2.72;;;1.60;;
10463;SDS011;5279;42.048;24.638;2023-03-31T13:15:27;2.28;;;1.58;;
10463;SDS011;5279;42.048;24.638;2023-03-31T13:17:56;2.42;;;1.52;;
10463;SDS011;5279;42.048;24.638;2023-03-31T13:20:29;1.85;;;1.67;;
10463;SDS011;5279;42.048;24.638;2023-03-31T13:23:02;1.50;;;1.40;;
10463;SDS011;5279;42.048;24.638;2023-03-31T13:25:33;3.88;;;1.65;;
10463;SDS011;5279;42.048;24.638;2023-03-31T13:28:12;3.03;;;1.73;;
10463;SDS011;5279;42.048;24.638;2023-03-31T13:30:45;3.30;;;1.60;;
10463;SDS011;5279;42.048;24.638;2023-03-31T13:33:16;3.07;;;1.57;;
10463;SDS011;5279;42.048;24.638;2023-03-31T13:35:47;3.30;;;1.80;;
10463;SDS011;5279;42.048;24.638;2023-03-31T13:38:21;1.67;;;1.57;;
10463;SDS011;5279;42.048;24.638;2023-03-31T13:41:08;2.50;;;1.60;;
10463;SDS011;5279;42.048;24.638;2023-03-31T13:43:57;5.50;;;1.57;;
10463;SDS011;5279;42.048;24.638;2023-03-31T13:46:47;2.30;;;1.50;;
10463;SDS011;5279;42.048;24.638;2023-03-31T13:52:34;1.50;;;1.40;;
10463;SDS011;5279;42.048;24.638;2023-03-31T13:58:18;1.87;;;1.57;;
10463;SDS011;5279;42.048;24.638;2023-03-31T14:01:10;3.90;;;1.40;;
10463;SDS011;5279;42.048;24.638;2023-03-31T14:03:57;1.50;;;1.40;;
10463;SDS011;5279;42.048;24.638;2023-03-31T14:06:36;1.40;;;1.30;;
10463;SDS011;5279;42.048;24.638;2023-03-31T14:09:05;2.30;;;1.80;;
10463;SDS011;5279;42.048;24.638;2023-03-31T14:11:34;1.47;;;1.37;;
10463;SDS011;5279;42.048;24.638;2023-03-31T14:14:02;1.73;;;1.20;;
10463;SDS011;5279;42.048;24.638;2023-03-31T14:16:32;2.37;;;1.80;;
10463;SDS011;5279;42.048;24.638;2023-03-31T14:19:17;1.67;;;1.43;;
10463;SDS011;5279;42.048;24.638;2023-03-31T14:22:00;4.73;;;1.77;;
10463;SDS011;5279;42.048;24.638;2023-03-31T14:24:35;2.23;;;1.53;;
10463;SDS011;5279;42.048;24.638;2023-03-31T14:27:10;1.40;;;1.30;;
10463;SDS011;5279;42.048;24.638;2023-03-31T14:29:50;1.77;;;1.63;;
10463;SDS011;5279;42.048;24.638;2023-03-31T14:32:27;1.73;;;1.40;;
10463;SDS011;5279;42.048;24.638;2023-03-31T14:35:08;2.57;;;1.43;;
10463;SDS011;5279;42.048;24.638;2023-03-31T14:37:52;1.87;;;1.60;;
10463;SDS011;5279;42.048;24.638;2023-03-31T14:40:19;1.90;;;1.50;;
10463;SDS011;5279;42.048;24.638;2023-03-31T14:42:47;1.50;;;1.40;;
10463;SDS011;5279;42.048;24.638;2023-03-31T14:45:15;1.53;;;1.43;;
10463;SDS011;5279;42.048;24.638;2023-03-31T14:47:52;1.50;;;1.40;;
10463;SDS011;5279;42.048;24.638;2023-03-31T14:50:21;1.57;;;1.50;;
10463;SDS011;5279;42.048;24.638;2023-03-31T14:52:54;2.53;;;1.47;;
10463;SDS011;5279;42.048;24.638;2023-03-31T14:55:22;1.97;;;1.60;;
10463;SDS011;5279;42.048;24.638;2023-03-31T14:57:51;2.37;;;2.17;;
10463;SDS011;5279;42.048;24.638;2023-03-31T15:00:23;1.87;;;1.20;;
10463;SDS011;5279;42.048;24.638;2023-03-31T15:02:52;1.70;;;1.60;;
10463;SDS011;5279;42.048;24.638;2023-03-31T15:05:22;2.43;;;1.23;;
10463;SDS011;5279;42.048;24.638;2023-03-31T15:07:56;2.03;;;1.30;;
10463;SDS011;5279;42.048;24.638;2023-03-31T15:10:24;1.53;;;1.43;;
10463;SDS011;5279;42.048;24.638;2023-03-31T15:12:55;1.20;;;1.10;;
10463;SDS011;5279;42.048;24.638;2023-03-31T15:15:22;1.90;;;1.17;;
10463;SDS011;5279;42.048;24.638;2023-03-31T15:17:50;1.47;;;1.37;;
10463;SDS011;5279;42.048;24.638;2023-03-31T15:20:23;2.53;;;1.40;;
10463;SDS011;5279;42.048;24.638;2023-03-31T15:22:53;2.27;;;1.47;;
10463;SDS011;5279;42.048;24.638;2023-03-31T15:25:22;2.80;;;1.50;;
10463;SDS011;5279;42.048;24.638;2023-03-31T15:27:52;2.30;;;1.30;;
10463;SDS011;5279;42.048;24.638;2023-03-31T15:30:22;1.53;;;1.40;;
10463;SDS011;5279;42.048;24.638;2023-03-31T15:32:52;3.27;;;1.67;;
10463;SDS011;5279;42.048;24.638;2023-03-31T15:35:20;2.37;;;1.53;;
10463;SDS011;5279;42.048;24.638;2023-03-31T15:37:50;2.90;;;1.40;;
10463;SDS011;5279;42.048;24.638;2023-03-31T15:40:22;2.47;;;1.53;;
10463;SDS011;5279;42.048;24.638;2023-03-31T15:42:52;2.50;;;1.53;;